createdAt,value
2023-03-06T00:01:40.048Z,82.60
2023-03-06T00:04:42.171Z,82.60
2023-03-06T00:07:44.910Z,82.60
2023-03-06T00:10:47.107Z,82.60
2023-03-06T00:13:49.264Z,82.60
2023-03-06T00:16:56.076Z,82.60
2023-03-06T00:19:58.279Z,82.60
2023-03-06T00:23:00.766Z,82.60
2023-03-06T00:26:02.880Z,83.30
2023-03-06T00:29:05.041Z,82.60
2023-03-06T00:32:07.634Z,82.50
2023-03-06T00:35:10.710Z,82.60
2023-03-06T00:38:13.524Z,82.60
2023-03-06T00:41:15.777Z,82.60
2023-03-06T00:44:17.984Z,82.60
2023-03-06T00:47:20.202Z,82.50
2023-03-06T00:50:22.456Z,82.50
2023-03-06T00:53:24.714Z,82.60
2023-03-06T00:56:26.880Z,82.50
2023-03-06T00:59:29.250Z,82.50
2023-03-06T01:02:31.467Z,82.50
2023-03-06T01:05:36.873Z,82.50
2023-03-06T01:08:39.123Z,82.60
2023-03-06T01:11:41.340Z,82.60
2023-03-06T01:14:43.580Z,82.60
2023-03-06T01:17:45.875Z,82.60
2023-03-06T01:20:48.746Z,82.50
2023-03-06T01:23:51.596Z,82.60
2023-03-06T01:26:53.871Z,82.60
2023-03-06T01:29:56.208Z,82.60
2023-03-06T01:32:59.379Z,82.60
2023-03-06T01:36:05.138Z,82.50
2023-03-06T01:39:07.424Z,82.60
2023-03-06T01:42:09.594Z,82.50
2023-03-06T01:45:14.863Z,82.50
2023-03-06T01:48:23.273Z,82.50
2023-03-06T01:51:33.250Z,82.50
2023-03-06T01:54:41.322Z,82.50
2023-03-06T01:57:46.581Z,82.50
2023-03-06T02:00:48.793Z,82.50
2023-03-06T02:03:51.875Z,82.50
2023-03-06T02:06:55.613Z,82.60
2023-03-06T02:09:58.891Z,82.60
2023-03-06T02:13:01.634Z,82.60
2023-03-06T02:16:04.338Z,82.60
2023-03-06T02:19:16.151Z,82.70
2023-03-06T02:22:18.295Z,82.60
2023-03-06T02:25:29.176Z,82.60
2023-03-06T02:28:31.832Z,82.60
2023-03-06T02:31:35.771Z,82.60
2023-03-06T02:34:37.865Z,82.70
2023-03-06T02:37:40.068Z,82.60
2023-03-06T02:40:44.135Z,82.60
2023-03-06T02:43:48.063Z,82.70
2023-03-06T02:46:50.206Z,82.60
2023-03-06T02:49:52.481Z,82.70
2023-03-06T02:52:54.740Z,82.60
2023-03-06T02:55:56.914Z,82.60
2023-03-06T02:58:59.119Z,82.60
2023-03-06T03:02:01.513Z,82.60
2023-03-06T03:05:04.936Z,82.70
2023-03-06T03:08:08.334Z,82.60
2023-03-06T03:11:12.311Z,82.50
2023-03-06T03:14:18.248Z,82.50
2023-03-06T03:17:22.934Z,82.60
2023-03-06T03:20:25.242Z,82.60
2023-03-06T03:23:27.805Z,82.60
2023-03-06T03:26:32.974Z,82.60
2023-03-06T03:29:40.507Z,82.50
2023-03-06T03:32:43.053Z,82.60
2023-03-06T03:35:45.556Z,82.50
2023-03-06T03:38:47.852Z,82.60
2023-03-06T03:41:50.363Z,82.60
2023-03-06T03:44:52.919Z,82.60
2023-03-06T03:47:56.996Z,82.60
2023-03-06T03:51:16.581Z,82.60
2023-03-06T03:54:22.630Z,82.60
2023-03-06T03:57:26.838Z,83.30
2023-03-06T04:00:30.766Z,82.70
2023-03-06T04:03:43.209Z,82.60
2023-03-06T04:06:46.824Z,82.60
2023-03-06T04:09:50.782Z,82.70
2023-03-06T04:12:54.075Z,82.60
2023-03-06T04:15:56.886Z,82.80
2023-03-06T04:18:59.495Z,82.70
2023-03-06T04:22:02.501Z,82.70
2023-03-06T04:25:07.355Z,82.70
2023-03-06T04:28:11.757Z,82.60
2023-03-06T04:31:14.866Z,82.70
2023-03-06T04:34:18.333Z,82.70
2023-03-06T04:37:24.449Z,82.70
2023-03-06T04:40:29.171Z,82.80
2023-03-06T04:43:31.588Z,82.80
2023-03-06T04:46:34.613Z,82.80
2023-03-06T04:49:37.016Z,82.90
2023-03-06T04:52:40.627Z,82.80
2023-03-06T04:55:42.799Z,82.90
2023-03-06T04:58:45.564Z,82.80
2023-03-06T05:01:47.825Z,82.80
2023-03-06T05:04:49.992Z,82.90
2023-03-06T05:07:52.366Z,83.00
2023-03-06T05:11:00.156Z,83.00
2023-03-06T05:14:02.303Z,83.00
2023-03-06T05:17:04.527Z,83.00
2023-03-06T05:20:08.633Z,83.00
2023-03-06T05:23:11.156Z,83.00
2023-03-06T05:26:15.014Z,83.00
2023-03-06T05:29:17.097Z,83.00
2023-03-06T05:32:19.285Z,83.00
2023-03-06T05:35:23.382Z,83.00
2023-03-06T05:38:26.090Z,83.10
2023-03-06T05:41:28.232Z,83.10
2023-03-06T05:44:35.422Z,83.20
2023-03-06T05:47:37.580Z,83.20
2023-03-06T05:50:40.380Z,83.20
2023-03-06T05:53:42.509Z,83.20
2023-03-06T05:56:44.661Z,83.40
2023-03-06T05:59:47.634Z,83.40
2023-03-06T06:02:49.776Z,83.40
2023-03-06T06:05:52.926Z,83.40
2023-03-06T06:08:55.145Z,83.40
2023-03-06T06:12:00.330Z,83.50
2023-03-06T06:15:02.447Z,83.50
2023-03-06T06:18:07.472Z,83.50
2023-03-06T06:21:11.939Z,83.50
2023-03-06T06:24:15.967Z,83.60
2023-03-06T06:27:18.394Z,83.50
2023-03-06T06:30:21.084Z,83.60
2023-03-06T06:33:23.902Z,83.60
2023-03-06T06:36:26.076Z,83.70
2023-03-06T06:39:29.075Z,83.70
2023-03-06T06:42:38.093Z,83.70
2023-03-06T06:45:44.233Z,83.70
2023-03-06T06:48:49.741Z,83.70
2023-03-06T06:51:51.898Z,83.70
2023-03-06T06:54:54.327Z,83.70
2023-03-06T06:57:56.468Z,83.80
2023-03-06T07:01:08.769Z,83.80
2023-03-06T07:04:14.305Z,83.80
2023-03-06T07:07:16.623Z,83.80
2023-03-06T07:10:20.729Z,84.00
2023-03-06T07:13:23.360Z,83.80
2023-03-06T07:16:25.560Z,84.00
2023-03-06T07:19:27.884Z,84.00
2023-03-06T07:22:35.865Z,84.00
2023-03-06T07:25:43.646Z,84.00
2023-03-06T07:28:52.443Z,84.00
2023-03-06T07:31:55.141Z,84.00
2023-03-06T07:35:17.128Z,84.10
2023-03-06T07:38:19.468Z,84.10
2023-03-06T07:41:22.696Z,84.20
2023-03-06T07:44:24.892Z,84.20
2023-03-06T07:47:27.224Z,84.20
2023-03-06T07:50:29.426Z,84.20
2023-03-06T07:53:32.561Z,84.30
2023-03-06T07:56:35.216Z,84.30
2023-03-06T07:59:37.319Z,84.40
2023-03-06T08:02:40.207Z,84.40
2023-03-06T08:05:42.575Z,84.40
2023-03-06T08:08:46.684Z,84.40
2023-03-06T08:11:48.946Z,84.40
2023-03-06T08:14:51.233Z,84.50
2023-03-06T08:17:53.841Z,84.60
2023-03-06T08:21:10.255Z,84.70
2023-03-06T08:24:13.353Z,84.80
2023-03-06T08:27:15.517Z,84.60
2023-03-06T08:30:19.652Z,84.90
2023-03-06T08:33:22.399Z,84.90
2023-03-06T08:36:24.704Z,84.80
2023-03-06T08:39:26.920Z,84.90
2023-03-06T08:42:29.006Z,85.00
2023-03-06T08:45:31.147Z,85.00
2023-03-06T08:48:33.353Z,84.90
2023-03-06T08:51:36.448Z,85.00
2023-03-06T08:54:39.276Z,85.10
2023-03-06T08:57:41.515Z,85.00
2023-03-06T09:00:43.981Z,85.20
2023-03-06T09:03:46.457Z,85.20
2023-03-06T09:06:48.946Z,85.10
2023-03-06T09:09:51.060Z,85.20
2023-03-06T09:12:55.095Z,85.10
2023-03-06T09:15:57.630Z,85.30
2023-03-06T09:18:59.826Z,85.50
2023-03-06T09:22:02.008Z,85.40
2023-03-06T09:25:05.480Z,85.30
2023-03-06T09:28:11.690Z,85.40
2023-03-06T09:31:17.100Z,85.30
2023-03-06T09:34:19.289Z,85.50
2023-03-06T09:37:21.702Z,85.30
2023-03-06T09:40:42.658Z,85.50
2023-03-06T09:43:50.662Z,85.60
2023-03-06T09:47:11.585Z,85.50
2023-03-06T09:50:21.499Z,85.50
2023-03-06T09:53:42.209Z,85.50
2023-03-06T09:56:50.419Z,85.50
2023-03-06T09:59:56.678Z,85.60
2023-03-06T10:03:23.960Z,85.50
2023-03-06T10:06:34.767Z,85.60
2023-03-06T10:09:46.531Z,85.60
2023-03-06T10:13:27.301Z,85.50
2023-03-06T10:16:32.213Z,85.60
2023-03-06T10:19:40.191Z,85.60
2023-03-06T10:23:00.607Z,85.70
2023-03-06T10:26:19.655Z,85.70
2023-03-06T10:29:33.939Z,85.70
2023-03-06T10:32:58.612Z,85.60
2023-03-06T10:36:01.376Z,85.70
2023-03-06T10:39:14.280Z,85.70
2023-03-06T10:42:16.724Z,85.70
2023-03-06T10:45:18.907Z,85.70
2023-03-06T10:48:26.982Z,86.30
2023-03-06T10:51:31.459Z,85.70
2023-03-06T10:54:39.838Z,85.70
2023-03-06T10:57:42.048Z,85.60
2023-03-06T11:00:44.406Z,85.60
2023-03-06T11:03:47.777Z,85.70
2023-03-06T11:07:15.708Z,85.70
2023-03-06T11:10:19.864Z,85.70
2023-03-06T11:13:23.986Z,85.60
2023-03-06T11:16:30.731Z,85.70
2023-03-06T11:19:33.791Z,85.70
2023-03-06T11:22:39.273Z,85.70
2023-03-06T11:25:48.529Z,85.70
2023-03-06T11:29:18.758Z,85.60
2023-03-06T11:32:23.614Z,85.70
2023-03-06T11:35:35.254Z,85.60
2023-03-06T11:38:52.802Z,85.60
2023-03-06T11:42:28.092Z,85.70
2023-03-06T11:46:08.208Z,85.60
2023-03-06T11:49:32.122Z,85.70
2023-03-06T11:52:46.872Z,86.40
2023-03-06T11:56:14.558Z,85.90
2023-03-06T11:59:29.559Z,85.80
2023-03-06T12:02:55.771Z,85.80
2023-03-06T12:06:11.289Z,85.70
2023-03-06T12:09:13.364Z,85.80
2023-03-06T12:12:33.407Z,85.70
2023-03-06T12:15:53.568Z,85.80
2023-03-06T12:19:12.679Z,85.80
2023-03-06T12:22:42.250Z,85.70
2023-03-06T12:25:52.591Z,85.70
2023-03-06T12:29:13.662Z,85.70
2023-03-06T12:32:59.632Z,85.80
2023-03-06T12:36:20.752Z,85.80
2023-03-06T12:39:59.947Z,85.70
2023-03-06T12:43:29.498Z,85.80
2023-03-06T12:46:39.781Z,85.60
2023-03-06T12:49:43.437Z,85.70
2023-03-06T12:52:47.220Z,85.50
2023-03-06T12:55:51.006Z,85.60
2023-03-06T12:58:55.443Z,85.60
2023-03-06T13:02:28.293Z,85.60
2023-03-06T13:05:33.206Z,85.60
2023-03-06T13:08:53.045Z,85.70
2023-03-06T13:12:22.605Z,85.50
2023-03-06T13:15:44.119Z,85.50
2023-03-06T13:18:51.050Z,85.60
2023-03-06T13:21:56.029Z,85.50
2023-03-06T13:25:27.301Z,85.50
2023-03-06T13:28:50.267Z,85.50
2023-03-06T13:31:52.492Z,85.40
2023-03-06T13:34:54.623Z,85.40
2023-03-06T13:37:58.606Z,85.40
2023-03-06T13:41:22.364Z,85.30
2023-03-06T13:44:24.575Z,85.30
2023-03-06T13:47:31.085Z,85.30
2023-03-06T13:50:43.669Z,85.20
2023-03-06T13:54:23.067Z,85.30
2023-03-06T13:57:58.440Z,85.20
2023-03-06T14:01:03.764Z,85.20
2023-03-06T14:04:21.108Z,85.20
2023-03-06T14:07:28.916Z,85.20
2023-03-06T14:10:34.861Z,85.20
2023-03-06T14:13:47.470Z,85.20
2023-03-06T14:16:51.143Z,85.10
2023-03-06T14:19:54.339Z,85.00
2023-03-06T14:23:24.406Z,85.00
2023-03-06T14:26:28.717Z,85.00
2023-03-06T14:29:32.994Z,85.00
2023-03-06T14:32:35.356Z,85.00
2023-03-06T14:35:38.337Z,84.90
2023-03-06T14:38:53.820Z,84.90
2023-03-06T14:42:08.869Z,84.90
2023-03-06T14:45:18.721Z,84.80
2023-03-06T14:48:21.693Z,84.80
2023-03-06T14:51:28.308Z,84.80
2023-03-06T14:54:34.265Z,84.80
2023-03-06T14:57:36.514Z,84.80
2023-03-06T15:00:43.417Z,84.60
2023-03-06T15:03:51.297Z,84.70
2023-03-06T15:06:54.711Z,84.70
2023-03-06T15:09:57.996Z,84.70
2023-03-06T15:13:30.586Z,84.60
2023-03-06T15:16:32.820Z,84.70
2023-03-06T15:19:40.628Z,84.50
2023-03-06T15:22:43.344Z,84.50
2023-03-06T15:25:54.858Z,84.50
2023-03-06T15:29:10.351Z,84.50
2023-03-06T15:32:30.805Z,84.50
2023-03-06T15:35:37.661Z,84.50
2023-03-06T15:38:45.632Z,84.50
2023-03-06T15:41:48.092Z,84.50
2023-03-06T15:44:55.376Z,84.40
2023-03-06T15:47:57.641Z,84.40
2023-03-06T15:51:00.095Z,84.40
2023-03-06T15:54:11.923Z,84.40
2023-03-06T15:57:31.516Z,84.50
2023-03-06T16:00:36.878Z,84.50
2023-03-06T16:03:38.962Z,84.40
2023-03-06T16:06:41.224Z,84.30
2023-03-06T16:09:44.413Z,84.20
2023-03-06T16:13:06.321Z,84.50
2023-03-06T16:16:16.153Z,84.50
2023-03-06T16:19:26.360Z,84.40
2023-03-06T16:22:32.084Z,84.30
2023-03-06T16:25:34.669Z,84.40
2023-03-06T16:28:40.695Z,84.30
2023-03-06T16:31:43.629Z,84.30
2023-03-06T16:34:45.786Z,84.20
2023-03-06T16:37:48.347Z,84.20
2023-03-06T16:40:50.541Z,84.20
2023-03-06T16:43:52.778Z,84.20
2023-03-06T16:46:54.979Z,84.10
2023-03-06T16:49:58.256Z,84.20
2023-03-06T16:53:00.562Z,84.10
2023-03-06T16:56:02.752Z,84.10
2023-03-06T16:59:05.862Z,84.20
2023-03-06T17:02:11.831Z,84.20
2023-03-06T17:05:14.957Z,84.10
2023-03-06T17:08:17.087Z,84.10
2023-03-06T17:11:22.318Z,84.10
2023-03-06T17:14:24.460Z,84.10
2023-03-06T17:17:27.073Z,84.10
2023-03-06T17:20:29.333Z,84.10
2023-03-06T17:23:31.600Z,84.10
2023-03-06T17:26:34.197Z,84.00
2023-03-06T17:29:36.487Z,84.00
2023-03-06T17:32:41.154Z,84.10
2023-03-06T17:35:43.356Z,84.00
2023-03-06T17:38:45.882Z,83.90
2023-03-06T17:41:48.467Z,83.90
2023-03-06T17:44:51.218Z,83.90
2023-03-06T17:47:54.875Z,83.90
2023-03-06T17:50:57.988Z,83.90
2023-03-06T17:54:00.182Z,83.90
2023-03-06T17:57:04.582Z,83.90
2023-03-06T18:00:07.484Z,83.80
2023-03-06T18:03:29.651Z,83.80
2023-03-06T18:06:33.721Z,83.80
2023-03-06T18:09:35.983Z,83.80
2023-03-06T18:12:38.186Z,83.90
2023-03-06T18:15:41.086Z,83.80
2023-03-06T18:18:43.591Z,83.70
2023-03-06T18:21:47.414Z,84.40
2023-03-06T18:24:49.596Z,83.80
2023-03-06T18:27:51.753Z,83.70
2023-03-06T18:30:53.882Z,83.70
2023-03-06T18:33:58.319Z,83.70
2023-03-06T18:37:00.555Z,83.80
2023-03-06T18:40:02.999Z,83.80
2023-03-06T18:43:05.165Z,83.70
2023-03-06T18:46:07.448Z,83.70
2023-03-06T18:49:10.504Z,83.70
2023-03-06T18:52:13.077Z,83.60
2023-03-06T18:55:15.245Z,83.70
2023-03-06T18:58:18.910Z,83.60
2023-03-06T19:01:22.600Z,83.70
2023-03-06T19:04:26.211Z,83.60
2023-03-06T19:07:28.458Z,83.60
2023-03-06T19:10:31.382Z,83.60
2023-03-06T19:13:33.678Z,83.60
2023-03-06T19:16:36.115Z,83.50
2023-03-06T19:19:38.334Z,83.50
2023-03-06T19:22:40.560Z,83.50
2023-03-06T19:25:42.732Z,83.50
2023-03-06T19:28:45.776Z,83.50
2023-03-06T19:31:48.152Z,83.50
2023-03-06T19:34:50.407Z,83.40
2023-03-06T19:37:53.589Z,83.40
2023-03-06T19:40:55.887Z,83.40
2023-03-06T19:44:00.333Z,83.40
2023-03-06T19:47:02.572Z,83.40
2023-03-06T19:50:05.077Z,83.40
2023-03-06T19:53:08.518Z,83.30
2023-03-06T19:56:20.077Z,83.30
2023-03-06T19:59:22.229Z,83.40
2023-03-06T20:02:27.484Z,83.30
2023-03-06T20:05:29.629Z,83.40
2023-03-06T20:08:32.239Z,83.30
2023-03-06T20:11:34.883Z,83.30
2023-03-06T20:14:37.011Z,83.30
2023-03-06T20:17:42.195Z,83.30
2023-03-06T20:20:44.745Z,83.30
2023-03-06T20:23:46.931Z,83.30
2023-03-06T20:26:51.246Z,83.30
2023-03-06T20:29:53.441Z,83.20
2023-03-06T20:32:55.974Z,83.30
2023-03-06T20:35:58.091Z,83.30
2023-03-06T20:39:01.243Z,83.30
2023-03-06T20:42:04.100Z,83.20
2023-03-06T20:45:06.990Z,83.20
2023-03-06T20:48:09.131Z,83.30
2023-03-06T20:51:32.987Z,83.20
2023-03-06T20:54:35.317Z,83.30
2023-03-06T20:57:37.454Z,83.30
2023-03-06T21:00:39.570Z,83.20
2023-03-06T21:03:41.829Z,83.20
2023-03-06T21:06:47.015Z,83.10
2023-03-06T21:09:49.896Z,83.20
2023-03-06T21:12:52.046Z,83.20
2023-03-06T21:15:54.257Z,83.20
2023-03-06T21:18:57.757Z,83.20
2023-03-06T21:22:00.060Z,83.20
2023-03-06T21:25:02.374Z,83.10
2023-03-06T21:28:05.503Z,83.10
2023-03-06T21:31:09.859Z,83.20
2023-03-06T21:34:12.172Z,83.20
2023-03-06T21:37:14.523Z,83.10
2023-03-06T21:40:16.849Z,83.10
2023-03-06T21:43:19.012Z,83.20
2023-03-06T21:46:21.236Z,83.10
2023-03-06T21:49:26.193Z,83.10
2023-03-06T21:52:28.361Z,83.10
2023-03-06T21:55:30.537Z,83.20
2023-03-06T21:58:32.766Z,83.10
2023-03-06T22:01:34.865Z,83.10
2023-03-06T22:04:36.960Z,83.10
2023-03-06T22:07:39.375Z,83.10
2023-03-06T22:10:42.111Z,83.10
2023-03-06T22:13:45.337Z,83.10
2023-03-06T22:16:47.468Z,83.10
2023-03-06T22:19:49.762Z,83.10
2023-03-06T22:22:51.902Z,83.20
2023-03-06T22:25:53.939Z,83.10
2023-03-06T22:28:56.425Z,83.10
2023-03-06T22:31:58.599Z,83.10
2023-03-06T22:35:00.748Z,83.20
2023-03-06T22:38:04.606Z,83.20
2023-03-06T22:41:08.305Z,83.10
2023-03-06T22:44:18.825Z,83.20
2023-03-06T22:47:21.069Z,83.20
2023-03-06T22:50:23.300Z,83.10
2023-03-06T22:53:25.393Z,83.20
2023-03-06T22:56:27.810Z,83.10
2023-03-06T22:59:30.062Z,83.20
2023-03-06T23:02:34.274Z,83.10
2023-03-06T23:05:41.511Z,83.20
2023-03-06T23:08:44.892Z,83.20
2023-03-06T23:11:47.696Z,83.20
2023-03-06T23:15:08.538Z,83.10
2023-03-06T23:18:29.802Z,83.10
2023-03-06T23:21:50.665Z,83.10
2023-03-06T23:25:11.514Z,83.10
2023-03-06T23:28:13.867Z,83.10
2023-03-06T23:31:18.847Z,83.20
2023-03-06T23:34:21.015Z,83.10
2023-03-06T23:37:23.195Z,83.10
2023-03-06T23:40:25.446Z,83.10
2023-03-06T23:43:28.994Z,83.10
2023-03-06T23:46:31.337Z,83.10
2023-03-06T23:49:33.593Z,83.10
2023-03-06T23:52:35.786Z,83.10
2023-03-06T23:55:42.302Z,83.00
2023-03-06T23:58:45.725Z,83.00
